Terminal Aerodrome Forecast
Issued by NWS Miami, FL

Home | Current Version | Previous Version | Text Only | Print | Product List | Glossary On
Versions: 1 2 3 4 5 6 7 8 9 10 11 12 13 14 15 16 17 18 19 20 21
000
FTUS42 KMFL 021126
TAFPBI
TAF
KPBI 021126Z 0212/0312 12012KT P6SM SCT025 SCT040
     FM021400 13015KT P6SM SCT025 SCT050
     FM030100 14010KT P6SM SCT050=

USA.gov is the U.S. government's official web portal to all federal, state and local government web resources and services.